Terminal Aerodrome Forecast
Issued by NWS

Home | Current Version | Previous Version | Text Only | Print | Product List | Glossary On
Versions: 1 2 3 4 5 6 7 8 9 10 11 12 13 14 15 16 17 18 19 20 21 22 23 24
000
FTUS41 KCAR 291100
TAFFVE
TAF
KFVE 291122Z 2912/3012 21010KT P6SM SCT004 OVC009
     FM291300 23007KT P6SM BKN012
     FM291900 25009KT P6SM BKN030
     FM292100 24007KT P6SM SCT040
     FM300900 00000KT 3SM BR SCT005=

USA.gov is the U.S. government's official web portal to all federal, state and local government web resources and services.